< < Back
Terminal Aerodrome Forecast


Current Version              Previous Versions:   1  2  3  4  5  6  7  8  9  

Terminal Aerodrome Forecast

635
FTUS42 KTAE 011120
TAFABY
TAF
KABY 011120Z 0112/0212 15003KT P6SM FEW050 SCT250=

Latest METAR

168
SAUS70 KWBC 012000 RRP
MTRABY
METAR KABY 011953Z 06004KT 10SM BKN085 33/21 A3007 RMK AO2 SLP179
T03330206


USA.gov is the U.S. government's official web portal to all federal, state and local government web resources and services.